sensor_id;sensor_type;location;lat;lon;timestamp;P1;durP1;ratioP1;P2;durP2;ratioP2
980;SDS011;479;53.514;9.994;2024-03-06T00:01:07;13.45;;;8.40;;
980;SDS011;479;53.514;9.994;2024-03-06T00:03:34;9.57;;;6.43;;
980;SDS011;479;53.514;9.994;2024-03-06T00:06:03;11.40;;;8.27;;
980;SDS011;479;53.514;9.994;2024-03-06T00:08:30;10.93;;;7.22;;
980;SDS011;479;53.514;9.994;2024-03-06T00:10:57;9.90;;;6.20;;
980;SDS011;479;53.514;9.994;2024-03-06T00:13:23;9.15;;;5.97;;
980;SDS011;479;53.514;9.994;2024-03-06T00:15:50;10.60;;;7.85;;
980;SDS011;479;53.514;9.994;2024-03-06T00:18:17;11.38;;;7.45;;
980;SDS011;479;53.514;9.994;2024-03-06T00:20:53;8.40;;;7.00;;
980;SDS011;479;53.514;9.994;2024-03-06T00:23:21;10.07;;;7.22;;
980;SDS011;479;53.514;9.994;2024-03-06T00:25:48;10.40;;;6.97;;
980;SDS011;479;53.514;9.994;2024-03-06T00:28:15;11.45;;;7.15;;
980;SDS011;479;53.514;9.994;2024-03-06T00:30:42;9.32;;;6.75;;
980;SDS011;479;53.514;9.994;2024-03-06T00:33:09;9.30;;;7.00;;
980;SDS011;479;53.514;9.994;2024-03-06T00:35:35;12.45;;;7.85;;
980;SDS011;479;53.514;9.994;2024-03-06T00:38:02;11.45;;;6.95;;
980;SDS011;479;53.514;9.994;2024-03-06T00:40:31;10.70;;;8.00;;
980;SDS011;479;53.514;9.994;2024-03-06T00:42:58;18.00;;;9.80;;
980;SDS011;479;53.514;9.994;2024-03-06T00:45:25;11.95;;;8.55;;
980;SDS011;479;53.514;9.994;2024-03-06T00:47:52;9.73;;;7.20;;
980;SDS011;479;53.514;9.994;2024-03-06T00:50:19;10.77;;;6.75;;
980;SDS011;479;53.514;9.994;2024-03-06T00:52:47;10.63;;;7.38;;
980;SDS011;479;53.514;9.994;2024-03-06T00:55:14;9.77;;;7.03;;
980;SDS011;479;53.514;9.994;2024-03-06T00:57:44;8.25;;;6.75;;
980;SDS011;479;53.514;9.994;2024-03-06T01:00:11;8.90;;;6.18;;
980;SDS011;479;53.514;9.994;2024-03-06T01:02:40;11.90;;;6.72;;
980;SDS011;479;53.514;9.994;2024-03-06T01:05:07;9.10;;;7.45;;
980;SDS011;479;53.514;9.994;2024-03-06T01:07:34;8.88;;;6.70;;
980;SDS011;479;53.514;9.994;2024-03-06T01:10:04;9.05;;;5.63;;
980;SDS011;479;53.514;9.994;2024-03-06T01:12:32;10.75;;;7.30;;
980;SDS011;479;53.514;9.994;2024-03-06T01:15:00;8.57;;;6.85;;
980;SDS011;479;53.514;9.994;2024-03-06T01:17:28;7.95;;;6.15;;
980;SDS011;479;53.514;9.994;2024-03-06T01:19:54;7.72;;;6.35;;
980;SDS011;479;53.514;9.994;2024-03-06T01:22:21;9.57;;;6.25;;
980;SDS011;479;53.514;9.994;2024-03-06T01:24:48;6.97;;;5.63;;
980;SDS011;479;53.514;9.994;2024-03-06T01:27:16;8.45;;;5.85;;
980;SDS011;479;53.514;9.994;2024-03-06T01:29:43;6.97;;;5.88;;
980;SDS011;479;53.514;9.994;2024-03-06T01:32:11;7.63;;;6.45;;
980;SDS011;479;53.514;9.994;2024-03-06T01:34:38;12.50;;;6.82;;
980;SDS011;479;53.514;9.994;2024-03-06T01:37:05;10.30;;;5.97;;
980;SDS011;479;53.514;9.994;2024-03-06T01:39:32;10.30;;;6.55;;
980;SDS011;479;53.514;9.994;2024-03-06T01:42:00;6.07;;;5.25;;
980;SDS011;479;53.514;9.994;2024-03-06T01:44:28;8.18;;;6.28;;
980;SDS011;479;53.514;9.994;2024-03-06T01:46:55;9.20;;;6.25;;
980;SDS011;479;53.514;9.994;2024-03-06T01:49:23;7.60;;;5.93;;
980;SDS011;479;53.514;9.994;2024-03-06T01:51:53;6.90;;;5.25;;
980;SDS011;479;53.514;9.994;2024-03-06T01:54:22;6.70;;;5.20;;
980;SDS011;479;53.514;9.994;2024-03-06T01:56:49;9.20;;;5.78;;
980;SDS011;479;53.514;9.994;2024-03-06T01:59:17;6.53;;;5.63;;
980;SDS011;479;53.514;9.994;2024-03-06T02:01:47;7.45;;;5.03;;
980;SDS011;479;53.514;9.994;2024-03-06T02:04:14;8.60;;;6.20;;
980;SDS011;479;53.514;9.994;2024-03-06T02:06:45;8.30;;;5.60;;
980;SDS011;479;53.514;9.994;2024-03-06T02:09:12;6.18;;;5.30;;
980;SDS011;479;53.514;9.994;2024-03-06T02:11:39;7.25;;;5.30;;
980;SDS011;479;53.514;9.994;2024-03-06T02:14:07;8.63;;;5.72;;
980;SDS011;479;53.514;9.994;2024-03-06T02:16:35;8.30;;;6.18;;
980;SDS011;479;53.514;9.994;2024-03-06T02:19:05;7.95;;;6.80;;
980;SDS011;479;53.514;9.994;2024-03-06T02:21:38;9.98;;;5.35;;
980;SDS011;479;53.514;9.994;2024-03-06T02:24:13;6.22;;;4.95;;
980;SDS011;479;53.514;9.994;2024-03-06T02:26:40;7.45;;;5.60;;
980;SDS011;479;53.514;9.994;2024-03-06T02:29:09;10.10;;;6.68;;
980;SDS011;479;53.514;9.994;2024-03-06T02:31:38;7.43;;;5.70;;
980;SDS011;479;53.514;9.994;2024-03-06T02:34:07;9.57;;;6.35;;
980;SDS011;479;53.514;9.994;2024-03-06T02:36:36;8.80;;;5.30;;
980;SDS011;479;53.514;9.994;2024-03-06T02:39:08;9.57;;;6.38;;
980;SDS011;479;53.514;9.994;2024-03-06T02:41:36;7.05;;;5.68;;
980;SDS011;479;53.514;9.994;2024-03-06T02:44:08;6.95;;;5.35;;
980;SDS011;479;53.514;9.994;2024-03-06T02:46:42;10.60;;;6.82;;
980;SDS011;479;53.514;9.994;2024-03-06T02:49:14;5.47;;;4.95;;
980;SDS011;479;53.514;9.994;2024-03-06T02:51:43;10.48;;;6.68;;
980;SDS011;479;53.514;9.994;2024-03-06T02:54:10;5.85;;;5.25;;
980;SDS011;479;53.514;9.994;2024-03-06T02:56:37;7.10;;;5.72;;
980;SDS011;479;53.514;9.994;2024-03-06T02:59:04;5.18;;;4.68;;
980;SDS011;479;53.514;9.994;2024-03-06T03:01:31;6.32;;;4.97;;
980;SDS011;479;53.514;9.994;2024-03-06T03:03:59;7.07;;;4.60;;
980;SDS011;479;53.514;9.994;2024-03-06T03:06:26;8.82;;;5.72;;
980;SDS011;479;53.514;9.994;2024-03-06T03:08:55;8.65;;;5.47;;
980;SDS011;479;53.514;9.994;2024-03-06T03:11:22;8.20;;;5.35;;
980;SDS011;479;53.514;9.994;2024-03-06T03:13:49;9.23;;;6.10;;
980;SDS011;479;53.514;9.994;2024-03-06T03:16:16;8.68;;;6.22;;
980;SDS011;479;53.514;9.994;2024-03-06T03:18:44;6.38;;;4.95;;
980;SDS011;479;53.514;9.994;2024-03-06T03:21:11;6.55;;;4.95;;
980;SDS011;479;53.514;9.994;2024-03-06T03:23:38;6.75;;;5.25;;
980;SDS011;479;53.514;9.994;2024-03-06T03:26:06;9.18;;;5.95;;
980;SDS011;479;53.514;9.994;2024-03-06T03:28:37;6.13;;;5.55;;
980;SDS011;479;53.514;9.994;2024-03-06T03:31:04;9.10;;;6.38;;
980;SDS011;479;53.514;9.994;2024-03-06T03:33:32;7.07;;;5.43;;
980;SDS011;479;53.514;9.994;2024-03-06T03:35:59;8.88;;;5.88;;
980;SDS011;479;53.514;9.994;2024-03-06T03:38:25;5.25;;;4.78;;
980;SDS011;479;53.514;9.994;2024-03-06T03:40:52;5.65;;;5.05;;
980;SDS011;479;53.514;9.994;2024-03-06T03:43:20;5.25;;;4.75;;
980;SDS011;479;53.514;9.994;2024-03-06T03:45:47;7.30;;;4.80;;
980;SDS011;479;53.514;9.994;2024-03-06T03:48:14;9.60;;;5.57;;
980;SDS011;479;53.514;9.994;2024-03-06T03:50:41;8.43;;;5.30;;
980;SDS011;479;53.514;9.994;2024-03-06T03:53:08;4.95;;;4.40;;
980;SDS011;479;53.514;9.994;2024-03-06T03:55:35;5.88;;;4.93;;
980;SDS011;479;53.514;9.994;2024-03-06T03:58:02;9.85;;;5.03;;
980;SDS011;479;53.514;9.994;2024-03-06T04:00:33;7.25;;;5.13;;
980;SDS011;479;53.514;9.994;2024-03-06T04:03:00;6.68;;;5.38;;
980;SDS011;479;53.514;9.994;2024-03-06T04:05:27;6.40;;;5.22;;
980;SDS011;479;53.514;9.994;2024-03-06T04:07:54;6.88;;;4.55;;
980;SDS011;479;53.514;9.994;2024-03-06T04:10:21;5.82;;;5.30;;
980;SDS011;479;53.514;9.994;2024-03-06T04:12:48;5.90;;;4.88;;
980;SDS011;479;53.514;9.994;2024-03-06T04:15:15;7.00;;;5.32;;
980;SDS011;479;53.514;9.994;2024-03-06T04:17:44;5.90;;;4.88;;
980;SDS011;479;53.514;9.994;2024-03-06T04:20:11;4.95;;;4.35;;
980;SDS011;479;53.514;9.994;2024-03-06T04:22:38;7.70;;;5.28;;
980;SDS011;479;53.514;9.994;2024-03-06T04:25:05;9.38;;;4.57;;
980;SDS011;479;53.514;9.994;2024-03-06T04:27:32;5.90;;;5.30;;
980;SDS011;479;53.514;9.994;2024-03-06T04:29:59;5.70;;;5.20;;
980;SDS011;479;53.514;9.994;2024-03-06T04:32:26;6.93;;;5.63;;
980;SDS011;479;53.514;9.994;2024-03-06T04:34:55;8.20;;;5.13;;
980;SDS011;479;53.514;9.994;2024-03-06T04:37:21;4.68;;;3.85;;
980;SDS011;479;53.514;9.994;2024-03-06T04:39:48;7.90;;;4.75;;
980;SDS011;479;53.514;9.994;2024-03-06T04:42:15;9.18;;;4.82;;
980;SDS011;479;53.514;9.994;2024-03-06T04:44:42;6.53;;;5.35;;
980;SDS011;479;53.514;9.994;2024-03-06T04:47:09;6.93;;;4.85;;
980;SDS011;479;53.514;9.994;2024-03-06T04:49:36;5.38;;;4.63;;
980;SDS011;479;53.514;9.994;2024-03-06T04:52:05;6.93;;;4.20;;
980;SDS011;479;53.514;9.994;2024-03-06T04:54:32;6.63;;;4.95;;
980;SDS011;479;53.514;9.994;2024-03-06T04:56:58;5.97;;;4.35;;
980;SDS011;479;53.514;9.994;2024-03-06T04:59:25;7.07;;;4.97;;
980;SDS011;479;53.514;9.994;2024-03-06T05:01:52;5.30;;;4.18;;
980;SDS011;479;53.514;9.994;2024-03-06T05:04:19;6.68;;;5.38;;
980;SDS011;479;53.514;9.994;2024-03-06T05:06:46;8.23;;;5.57;;
980;SDS011;479;53.514;9.994;2024-03-06T05:09:14;7.22;;;4.85;;
980;SDS011;479;53.514;9.994;2024-03-06T05:11:42;5.53;;;4.80;;
980;SDS011;479;53.514;9.994;2024-03-06T05:14:09;8.68;;;4.35;;
980;SDS011;479;53.514;9.994;2024-03-06T05:16:36;7.72;;;4.80;;
980;SDS011;479;53.514;9.994;2024-03-06T05:19:03;8.50;;;4.68;;
980;SDS011;479;53.514;9.994;2024-03-06T05:21:32;9.48;;;4.50;;
980;SDS011;479;53.514;9.994;2024-03-06T05:24:00;5.63;;;4.85;;
980;SDS011;479;53.514;9.994;2024-03-06T05:26:29;5.68;;;5.05;;
980;SDS011;479;53.514;9.994;2024-03-06T05:28:56;5.53;;;4.55;;
980;SDS011;479;53.514;9.994;2024-03-06T05:31:22;7.43;;;5.28;;
980;SDS011;479;53.514;9.994;2024-03-06T05:33:50;5.10;;;4.60;;
980;SDS011;479;53.514;9.994;2024-03-06T05:36:17;6.07;;;4.45;;
980;SDS011;479;53.514;9.994;2024-03-06T05:38:44;6.68;;;5.13;;
980;SDS011;479;53.514;9.994;2024-03-06T05:41:13;5.85;;;5.25;;
980;SDS011;479;53.514;9.994;2024-03-06T05:43:41;6.13;;;4.68;;
980;SDS011;479;53.514;9.994;2024-03-06T05:46:08;6.55;;;5.03;;
980;SDS011;479;53.514;9.994;2024-03-06T05:48:35;4.68;;;4.28;;
980;SDS011;479;53.514;9.994;2024-03-06T05:51:02;5.13;;;4.65;;
980;SDS011;479;53.514;9.994;2024-03-06T05:53:29;6.72;;;4.35;;
980;SDS011;479;53.514;9.994;2024-03-06T05:55:56;5.95;;;4.18;;
980;SDS011;479;53.514;9.994;2024-03-06T05:58:23;6.63;;;5.53;;
980;SDS011;479;53.514;9.994;2024-03-06T06:00:51;5.78;;;4.55;;
980;SDS011;479;53.514;9.994;2024-03-06T06:03:18;6.70;;;5.50;;
980;SDS011;479;53.514;9.994;2024-03-06T06:05:45;15.30;;;6.82;;
980;SDS011;479;53.514;9.994;2024-03-06T06:08:12;5.35;;;4.75;;
980;SDS011;479;53.514;9.994;2024-03-06T06:10:39;6.40;;;4.68;;
980;SDS011;479;53.514;9.994;2024-03-06T06:13:06;4.40;;;3.90;;
980;SDS011;479;53.514;9.994;2024-03-06T06:15:33;6.10;;;4.75;;
980;SDS011;479;53.514;9.994;2024-03-06T06:18:01;7.55;;;5.72;;
980;SDS011;479;53.514;9.994;2024-03-06T06:20:28;6.50;;;4.88;;
980;SDS011;479;53.514;9.994;2024-03-06T06:22:55;7.03;;;5.28;;
980;SDS011;479;53.514;9.994;2024-03-06T06:25:22;10.48;;;4.78;;
980;SDS011;479;53.514;9.994;2024-03-06T06:27:49;6.18;;;4.18;;
980;SDS011;479;53.514;9.994;2024-03-06T06:30:16;6.50;;;5.32;;
980;SDS011;479;53.514;9.994;2024-03-06T06:32:43;6.25;;;5.00;;
980;SDS011;479;53.514;9.994;2024-03-06T06:35:12;7.93;;;5.07;;
980;SDS011;479;53.514;9.994;2024-03-06T06:37:39;6.25;;;5.05;;
980;SDS011;479;53.514;9.994;2024-03-06T06:40:06;7.43;;;4.97;;
980;SDS011;479;53.514;9.994;2024-03-06T06:42:35;4.55;;;4.13;;
980;SDS011;479;53.514;9.994;2024-03-06T06:45:02;6.05;;;4.88;;
980;SDS011;479;53.514;9.994;2024-03-06T06:47:31;12.05;;;4.93;;
980;SDS011;479;53.514;9.994;2024-03-06T06:49:58;6.97;;;5.85;;
980;SDS011;479;53.514;9.994;2024-03-06T06:52:26;8.07;;;5.20;;
980;SDS011;479;53.514;9.994;2024-03-06T06:54:54;6.63;;;5.03;;
980;SDS011;479;53.514;9.994;2024-03-06T06:57:21;4.88;;;4.38;;
980;SDS011;479;53.514;9.994;2024-03-06T06:59:47;5.60;;;4.80;;
980;SDS011;479;53.514;9.994;2024-03-06T07:02:15;5.85;;;5.18;;
980;SDS011;479;53.514;9.994;2024-03-06T07:04:42;5.50;;;3.65;;
980;SDS011;479;53.514;9.994;2024-03-06T07:07:09;6.50;;;5.88;;
980;SDS011;479;53.514;9.994;2024-03-06T07:09:37;7.85;;;5.53;;
980;SDS011;479;53.514;9.994;2024-03-06T07:12:04;5.93;;;3.75;;
980;SDS011;479;53.514;9.994;2024-03-06T07:14:33;5.38;;;4.43;;
980;SDS011;479;53.514;9.994;2024-03-06T07:17:00;5.65;;;5.10;;
980;SDS011;479;53.514;9.994;2024-03-06T07:19:27;7.47;;;6.68;;
980;SDS011;479;53.514;9.994;2024-03-06T07:21:54;5.15;;;4.65;;
980;SDS011;479;53.514;9.994;2024-03-06T07:24:21;7.35;;;4.88;;
980;SDS011;479;53.514;9.994;2024-03-06T07:26:49;4.82;;;4.30;;
980;SDS011;479;53.514;9.994;2024-03-06T07:29:16;6.80;;;5.93;;
980;SDS011;479;53.514;9.994;2024-03-06T07:31:43;5.80;;;4.80;;
980;SDS011;479;53.514;9.994;2024-03-06T07:34:10;10.13;;;6.00;;
980;SDS011;479;53.514;9.994;2024-03-06T07:36:37;5.97;;;5.40;;
980;SDS011;479;53.514;9.994;2024-03-06T07:39:04;14.50;;;7.37;;
980;SDS011;479;53.514;9.994;2024-03-06T07:41:30;5.23;;;4.73;;
980;SDS011;479;53.514;9.994;2024-03-06T07:43:59;6.60;;;5.70;;
980;SDS011;479;53.514;9.994;2024-03-06T07:46:26;6.00;;;5.40;;
980;SDS011;479;53.514;9.994;2024-03-06T07:48:53;6.40;;;5.40;;
980;SDS011;479;53.514;9.994;2024-03-06T07:51:20;6.10;;;5.33;;
980;SDS011;479;53.514;9.994;2024-03-06T07:53:47;7.50;;;5.30;;
980;SDS011;479;53.514;9.994;2024-03-06T07:56:15;5.67;;;5.17;;
980;SDS011;479;53.514;9.994;2024-03-06T07:58:42;4.57;;;3.43;;
980;SDS011;479;53.514;9.994;2024-03-06T08:01:10;5.90;;;5.40;;
980;SDS011;479;53.514;9.994;2024-03-06T08:03:38;4.93;;;4.53;;
980;SDS011;479;53.514;9.994;2024-03-06T08:06:06;3.67;;;3.47;;
980;SDS011;479;53.514;9.994;2024-03-06T08:08:33;5.97;;;5.10;;
980;SDS011;479;53.514;9.994;2024-03-06T08:11:00;5.13;;;4.70;;
980;SDS011;479;53.514;9.994;2024-03-06T08:13:27;4.83;;;4.20;;
980;SDS011;479;53.514;9.994;2024-03-06T08:15:55;6.77;;;5.23;;
980;SDS011;479;53.514;9.994;2024-03-06T08:18:23;6.97;;;5.47;;
980;SDS011;479;53.514;9.994;2024-03-06T08:20:50;4.77;;;4.30;;
980;SDS011;479;53.514;9.994;2024-03-06T08:23:18;6.50;;;5.90;;
980;SDS011;479;53.514;9.994;2024-03-06T08:25:45;6.00;;;5.50;;
980;SDS011;479;53.514;9.994;2024-03-06T08:28:11;5.67;;;5.10;;
980;SDS011;479;53.514;9.994;2024-03-06T08:30:38;5.70;;;5.10;;
980;SDS011;479;53.514;9.994;2024-03-06T08:33:05;5.03;;;4.57;;
980;SDS011;479;53.514;9.994;2024-03-06T08:35:33;5.40;;;4.90;;
980;SDS011;479;53.514;9.994;2024-03-06T08:38:00;5.27;;;4.57;;
980;SDS011;479;53.514;9.994;2024-03-06T08:40:27;8.30;;;5.10;;
980;SDS011;479;53.514;9.994;2024-03-06T08:42:54;6.60;;;6.00;;
980;SDS011;479;53.514;9.994;2024-03-06T08:45:21;6.70;;;5.60;;
980;SDS011;479;53.514;9.994;2024-03-06T08:47:49;7.10;;;5.40;;
980;SDS011;479;53.514;9.994;2024-03-06T08:50:17;8.43;;;5.07;;
980;SDS011;479;53.514;9.994;2024-03-06T08:52:45;6.27;;;5.47;;
980;SDS011;479;53.514;9.994;2024-03-06T08:55:13;7.27;;;6.50;;
980;SDS011;479;53.514;9.994;2024-03-06T08:57:40;9.20;;;5.97;;
980;SDS011;479;53.514;9.994;2024-03-06T09:00:07;7.47;;;5.93;;
980;SDS011;479;53.514;9.994;2024-03-06T09:02:35;5.57;;;4.90;;
980;SDS011;479;53.514;9.994;2024-03-06T09:05:03;7.13;;;6.27;;
980;SDS011;479;53.514;9.994;2024-03-06T09:07:31;5.83;;;5.33;;
980;SDS011;479;53.514;9.994;2024-03-06T09:10:04;7.80;;;6.43;;
980;SDS011;479;53.514;9.994;2024-03-06T09:12:32;5.53;;;4.77;;
980;SDS011;479;53.514;9.994;2024-03-06T09:14:59;8.47;;;6.70;;
980;SDS011;479;53.514;9.994;2024-03-06T09:17:26;6.63;;;6.00;;
980;SDS011;479;53.514;9.994;2024-03-06T09:19:53;8.80;;;6.20;;
980;SDS011;479;53.514;9.994;2024-03-06T09:22:20;9.40;;;6.57;;
980;SDS011;479;53.514;9.994;2024-03-06T09:24:48;5.60;;;5.07;;
980;SDS011;479;53.514;9.994;2024-03-06T09:27:16;5.67;;;5.13;;
980;SDS011;479;53.514;9.994;2024-03-06T09:29:43;6.70;;;6.00;;
980;SDS011;479;53.514;9.994;2024-03-06T09:32:10;5.97;;;5.40;;
980;SDS011;479;53.514;9.994;2024-03-06T09:34:41;5.40;;;4.77;;
980;SDS011;479;53.514;9.994;2024-03-06T09:37:08;6.50;;;5.20;;
980;SDS011;479;53.514;9.994;2024-03-06T09:39:35;5.60;;;5.07;;
980;SDS011;479;53.514;9.994;2024-03-06T09:42:02;8.27;;;6.70;;
980;SDS011;479;53.514;9.994;2024-03-06T09:44:30;10.63;;;5.83;;
980;SDS011;479;53.514;9.994;2024-03-06T09:46:58;6.23;;;4.23;;
980;SDS011;479;53.514;9.994;2024-03-06T09:49:28;8.50;;;5.70;;
980;SDS011;479;53.514;9.994;2024-03-06T09:51:56;9.80;;;7.00;;
980;SDS011;479;53.514;9.994;2024-03-06T09:54:24;14.93;;;7.27;;
980;SDS011;479;53.514;9.994;2024-03-06T09:56:52;7.60;;;6.80;;
980;SDS011;479;53.514;9.994;2024-03-06T09:59:24;7.87;;;6.00;;
980;SDS011;479;53.514;9.994;2024-03-06T10:01:55;10.30;;;7.60;;
980;SDS011;479;53.514;9.994;2024-03-06T10:04:23;9.03;;;6.60;;
980;SDS011;479;53.514;9.994;2024-03-06T10:06:52;9.80;;;8.10;;
980;SDS011;479;53.514;9.994;2024-03-06T10:09:21;8.20;;;6.70;;
980;SDS011;479;53.514;9.994;2024-03-06T10:11:48;8.90;;;8.00;;
980;SDS011;479;53.514;9.994;2024-03-06T10:14:18;8.70;;;6.73;;
980;SDS011;479;53.514;9.994;2024-03-06T10:16:55;12.27;;;7.90;;
980;SDS011;479;53.514;9.994;2024-03-06T10:19:31;9.60;;;6.73;;
980;SDS011;479;53.514;9.994;2024-03-06T10:22:00;8.47;;;7.20;;
980;SDS011;479;53.514;9.994;2024-03-06T10:24:27;10.90;;;7.30;;
980;SDS011;479;53.514;9.994;2024-03-06T10:26:55;10.77;;;6.27;;
980;SDS011;479;53.514;9.994;2024-03-06T10:29:25;8.90;;;6.80;;
980;SDS011;479;53.514;9.994;2024-03-06T10:31:53;24.30;;;11.00;;
980;SDS011;479;53.514;9.994;2024-03-06T10:34:21;8.50;;;7.10;;
980;SDS011;479;53.514;9.994;2024-03-06T10:36:53;9.57;;;7.93;;
980;SDS011;479;53.514;9.994;2024-03-06T10:39:21;8.90;;;7.43;;
980;SDS011;479;53.514;9.994;2024-03-06T10:41:51;13.13;;;8.47;;
980;SDS011;479;53.514;9.994;2024-03-06T10:44:20;10.47;;;9.20;;
980;SDS011;479;53.514;9.994;2024-03-06T10:46:55;11.13;;;6.60;;
980;SDS011;479;53.514;9.994;2024-03-06T10:49:25;12.33;;;9.27;;
980;SDS011;479;53.514;9.994;2024-03-06T10:51:58;12.00;;;7.80;;
980;SDS011;479;53.514;9.994;2024-03-06T10:54:26;9.97;;;8.33;;
980;SDS011;479;53.514;9.994;2024-03-06T10:56:55;10.93;;;7.93;;
980;SDS011;479;53.514;9.994;2024-03-06T10:59:23;11.67;;;8.93;;
980;SDS011;479;53.514;9.994;2024-03-06T11:01:53;9.37;;;8.07;;
980;SDS011;479;53.514;9.994;2024-03-06T11:04:21;12.87;;;9.03;;
980;SDS011;479;53.514;9.994;2024-03-06T11:06:51;8.40;;;7.33;;
980;SDS011;479;53.514;9.994;2024-03-06T11:09:19;9.43;;;8.47;;
980;SDS011;479;53.514;9.994;2024-03-06T11:11:49;14.43;;;7.37;;
980;SDS011;479;53.514;9.994;2024-03-06T11:14:17;10.40;;;7.70;;
980;SDS011;479;53.514;9.994;2024-03-06T11:17:03;11.33;;;9.97;;
980;SDS011;479;53.514;9.994;2024-03-06T11:19:32;10.10;;;7.77;;
980;SDS011;479;53.514;9.994;2024-03-06T11:22:29;10.80;;;7.63;;
980;SDS011;479;53.514;9.994;2024-03-06T11:28:37;9.13;;;7.50;;
980;SDS011;479;53.514;9.994;2024-03-06T11:31:05;9.30;;;8.20;;
980;SDS011;479;53.514;9.994;2024-03-06T11:33:37;10.83;;;7.37;;
980;SDS011;479;53.514;9.994;2024-03-06T11:36:14;10.13;;;7.97;;
980;SDS011;479;53.514;9.994;2024-03-06T11:38:45;10.07;;;7.77;;
980;SDS011;479;53.514;9.994;2024-03-06T11:41:24;9.77;;;7.23;;
980;SDS011;479;53.514;9.994;2024-03-06T11:43:51;10.93;;;7.73;;
980;SDS011;479;53.514;9.994;2024-03-06T11:46:20;14.87;;;8.10;;
980;SDS011;479;53.514;9.994;2024-03-06T11:48:52;9.37;;;7.87;;
980;SDS011;479;53.514;9.994;2024-03-06T11:51:20;8.50;;;7.40;;
980;SDS011;479;53.514;9.994;2024-03-06T11:53:52;12.10;;;9.00;;
980;SDS011;479;53.514;9.994;2024-03-06T11:56:20;10.53;;;8.57;;
980;SDS011;479;53.514;9.994;2024-03-06T11:58:47;10.70;;;8.03;;
980;SDS011;479;53.514;9.994;2024-03-06T12:01:14;9.80;;;7.67;;
980;SDS011;479;53.514;9.994;2024-03-06T12:03:41;10.10;;;9.00;;
980;SDS011;479;53.514;9.994;2024-03-06T12:06:09;11.80;;;9.20;;
980;SDS011;479;53.514;9.994;2024-03-06T12:08:36;12.23;;;8.27;;
980;SDS011;479;53.514;9.994;2024-03-06T12:11:05;10.63;;;8.50;;
980;SDS011;479;53.514;9.994;2024-03-06T12:13:33;11.27;;;8.17;;
980;SDS011;479;53.514;9.994;2024-03-06T12:16:03;9.53;;;8.50;;
980;SDS011;479;53.514;9.994;2024-03-06T12:18:31;11.73;;;8.23;;
980;SDS011;479;53.514;9.994;2024-03-06T12:21:00;8.37;;;7.27;;
980;SDS011;479;53.514;9.994;2024-03-06T12:23:28;8.47;;;7.13;;
980;SDS011;479;53.514;9.994;2024-03-06T12:26:05;16.10;;;8.20;;
980;SDS011;479;53.514;9.994;2024-03-06T12:28:35;14.57;;;10.17;;
980;SDS011;479;53.514;9.994;2024-03-06T12:31:02;10.63;;;7.27;;
980;SDS011;479;53.514;9.994;2024-03-06T12:33:30;10.50;;;7.00;;
980;SDS011;479;53.514;9.994;2024-03-06T12:36:04;7.73;;;6.93;;
980;SDS011;479;53.514;9.994;2024-03-06T12:38:35;11.57;;;8.10;;
980;SDS011;479;53.514;9.994;2024-03-06T12:41:03;11.70;;;8.23;;
980;SDS011;479;53.514;9.994;2024-03-06T12:43:32;8.97;;;7.77;;
980;SDS011;479;53.514;9.994;2024-03-06T12:45:59;9.00;;;7.63;;
980;SDS011;479;53.514;9.994;2024-03-06T12:48:28;9.60;;;8.07;;
980;SDS011;479;53.514;9.994;2024-03-06T12:51:01;12.93;;;8.97;;
980;SDS011;479;53.514;9.994;2024-03-06T12:53:30;10.30;;;6.90;;
980;SDS011;479;53.514;9.994;2024-03-06T12:55:57;8.00;;;6.10;;
980;SDS011;479;53.514;9.994;2024-03-06T12:58:24;9.90;;;8.03;;
980;SDS011;479;53.514;9.994;2024-03-06T13:00:52;7.40;;;6.70;;
980;SDS011;479;53.514;9.994;2024-03-06T13:03:19;9.17;;;8.13;;
980;SDS011;479;53.514;9.994;2024-03-06T13:05:46;12.87;;;8.00;;
980;SDS011;479;53.514;9.994;2024-03-06T13:08:13;9.73;;;7.90;;
980;SDS011;479;53.514;9.994;2024-03-06T13:10:41;10.43;;;7.67;;
980;SDS011;479;53.514;9.994;2024-03-06T13:13:08;12.43;;;9.37;;
980;SDS011;479;53.514;9.994;2024-03-06T13:15:35;10.13;;;7.50;;
980;SDS011;479;53.514;9.994;2024-03-06T13:18:04;14.37;;;7.10;;
980;SDS011;479;53.514;9.994;2024-03-06T13:20:31;8.07;;;6.37;;
980;SDS011;479;53.514;9.994;2024-03-06T13:22:59;6.87;;;6.13;;
980;SDS011;479;53.514;9.994;2024-03-06T13:25:26;12.40;;;10.00;;
980;SDS011;479;53.514;9.994;2024-03-06T13:27:54;10.33;;;8.20;;
980;SDS011;479;53.514;9.994;2024-03-06T13:30:20;8.47;;;6.70;;
980;SDS011;479;53.514;9.994;2024-03-06T13:32:48;11.33;;;9.27;;
980;SDS011;479;53.514;9.994;2024-03-06T13:35:16;9.90;;;8.17;;
980;SDS011;479;53.514;9.994;2024-03-06T13:37:43;9.43;;;6.17;;
980;SDS011;479;53.514;9.994;2024-03-06T13:40:10;9.93;;;6.70;;
980;SDS011;479;53.514;9.994;2024-03-06T13:42:38;10.90;;;8.47;;
980;SDS011;479;53.514;9.994;2024-03-06T13:45:06;11.30;;;7.53;;
980;SDS011;479;53.514;9.994;2024-03-06T13:47:36;14.00;;;9.23;;
980;SDS011;479;53.514;9.994;2024-03-06T13:50:05;10.80;;;7.47;;
980;SDS011;479;53.514;9.994;2024-03-06T13:52:35;10.17;;;7.20;;
980;SDS011;479;53.514;9.994;2024-03-06T13:55:02;8.37;;;6.73;;
980;SDS011;479;53.514;9.994;2024-03-06T13:57:29;10.90;;;7.63;;
980;SDS011;479;53.514;9.994;2024-03-06T13:59:58;10.27;;;7.77;;
980;SDS011;479;53.514;9.994;2024-03-06T14:02:25;8.10;;;7.10;;
980;SDS011;479;53.514;9.994;2024-03-06T14:04:52;9.13;;;5.90;;
980;SDS011;479;53.514;9.994;2024-03-06T14:07:19;9.63;;;7.13;;
980;SDS011;479;53.514;9.994;2024-03-06T14:09:48;10.47;;;7.37;;
980;SDS011;479;53.514;9.994;2024-03-06T14:12:15;9.20;;;7.43;;
980;SDS011;479;53.514;9.994;2024-03-06T14:14:42;10.17;;;7.70;;
980;SDS011;479;53.514;9.994;2024-03-06T14:17:10;10.17;;;7.83;;
980;SDS011;479;53.514;9.994;2024-03-06T14:19:37;9.77;;;7.43;;
980;SDS011;479;53.514;9.994;2024-03-06T14:22:05;8.87;;;6.70;;
980;SDS011;479;53.514;9.994;2024-03-06T14:24:32;9.67;;;7.77;;
980;SDS011;479;53.514;9.994;2024-03-06T14:27:00;8.07;;;6.00;;
980;SDS011;479;53.514;9.994;2024-03-06T14:29:28;6.90;;;6.20;;
980;SDS011;479;53.514;9.994;2024-03-06T14:31:55;13.37;;;7.40;;
980;SDS011;479;53.514;9.994;2024-03-06T14:34:22;11.33;;;7.80;;
980;SDS011;479;53.514;9.994;2024-03-06T14:36:49;8.70;;;7.80;;
980;SDS011;479;53.514;9.994;2024-03-06T14:39:17;9.50;;;7.10;;
980;SDS011;479;53.514;9.994;2024-03-06T14:41:44;7.60;;;6.00;;
980;SDS011;479;53.514;9.994;2024-03-06T14:44:13;7.87;;;6.40;;
980;SDS011;479;53.514;9.994;2024-03-06T14:46:40;12.30;;;8.23;;
980;SDS011;479;53.514;9.994;2024-03-06T14:49:07;7.93;;;6.00;;
980;SDS011;479;53.514;9.994;2024-03-06T14:51:34;10.70;;;6.90;;
980;SDS011;479;53.514;9.994;2024-03-06T14:54:01;9.07;;;6.70;;
980;SDS011;479;53.514;9.994;2024-03-06T14:56:28;9.67;;;7.97;;
980;SDS011;479;53.514;9.994;2024-03-06T14:58:56;13.07;;;8.90;;
980;SDS011;479;53.514;9.994;2024-03-06T15:01:24;12.10;;;10.50;;
980;SDS011;479;53.514;9.994;2024-03-06T15:03:51;15.00;;;11.70;;
980;SDS011;479;53.514;9.994;2024-03-06T15:06:19;12.77;;;8.83;;
980;SDS011;479;53.514;9.994;2024-03-06T15:08:46;14.20;;;5.47;;
980;SDS011;479;53.514;9.994;2024-03-06T15:11:13;5.57;;;4.47;;
980;SDS011;479;53.514;9.994;2024-03-06T15:13:40;10.03;;;6.67;;
980;SDS011;479;53.514;9.994;2024-03-06T15:16:07;9.87;;;6.63;;
980;SDS011;479;53.514;9.994;2024-03-06T15:18:35;6.67;;;5.80;;
980;SDS011;479;53.514;9.994;2024-03-06T15:21:02;9.10;;;5.90;;
980;SDS011;479;53.514;9.994;2024-03-06T15:23:30;8.90;;;5.83;;
980;SDS011;479;53.514;9.994;2024-03-06T15:25:57;6.70;;;6.00;;
980;SDS011;479;53.514;9.994;2024-03-06T15:28:25;8.80;;;4.90;;
980;SDS011;479;53.514;9.994;2024-03-06T15:30:52;7.83;;;6.20;;
980;SDS011;479;53.514;9.994;2024-03-06T15:33:18;6.97;;;5.70;;
980;SDS011;479;53.514;9.994;2024-03-06T15:35:47;7.57;;;6.20;;
980;SDS011;479;53.514;9.994;2024-03-06T15:38:13;6.13;;;5.50;;
980;SDS011;479;53.514;9.994;2024-03-06T15:40:40;7.10;;;5.97;;
980;SDS011;479;53.514;9.994;2024-03-06T15:43:07;8.80;;;6.37;;
980;SDS011;479;53.514;9.994;2024-03-06T15:45:34;19.20;;;12.20;;
980;SDS011;479;53.514;9.994;2024-03-06T15:48:01;9.30;;;6.90;;
980;SDS011;479;53.514;9.994;2024-03-06T15:50:28;9.30;;;6.73;;